Time;durP1;ratioP1;P1;durP2;ratioP2;P2;SDS_P1;SDS_P2;PMS_P1;PMS_P2;Temp;Humidity;BMP_temperature;BMP_pressure;BME280_temperature;BME280_humidity;BME280_pressure;Samples;Min_cycle;Max_cycle;Signal;HPM_P1;HPM_P2
2022/09/08 00:02:41;;;;;;;16.30;10.60;;;;;;;16.42;63.23;99975.78;2064624;86;30683;-63
2022/09/08 00:05:50;;;;;;;17.10;10.32;;;;;;;16.41;63.61;99978.11;2064995;86;27713;-62
2022/09/08 00:08:55;;;;;;;18.02;10.13;;;;;;;16.38;63.60;99970.27;2030309;87;29365;-62
2022/09/08 00:11:56;;;;;;;17.00;10.28;;;;;;;16.35;63.56;99974.56;2029796;87;32282;-63
2022/09/08 00:14:58;;;;;;;17.77;10.70;;;;;;;16.34;64.02;99975.55;2065301;86;33690;-62
2022/09/08 00:17:59;;;;;;;16.52;10.63;;;;;;;16.32;63.95;99974.30;2064998;86;30789;-63
2022/09/08 00:21:02;;;;;;;13.28;9.88;;;;;;;16.31;64.34;99970.37;2064722;86;27625;-62
2022/09/08 00:24:03;;;;;;;15.13;9.95;;;;;;;16.31;64.50;99970.37;2064537;86;28709;-63
2022/09/08 00:27:05;;;;;;;16.20;10.40;;;;;;;16.29;64.31;99968.28;2064581;86;31181;-61
2022/09/08 00:30:08;;;;;;;13.85;9.40;;;;;;;16.27;64.43;99961.66;2035147;86;34091;-63
2022/09/08 00:33:09;;;;;;;13.15;9.88;;;;;;;16.25;64.83;99961.76;2024152;88;29668;-63
2022/09/08 00:36:18;;;;;;;15.95;10.48;;;;;;;16.11;64.75;99933.62;2024179;88;27630;-60
2022/09/08 00:39:19;;;;;;;18.37;11.30;;;;;;;16.19;65.02;99964.09;2023999;88;28111;-62
2022/09/08 00:42:21;;;;;;;11.30;9.88;;;;;;;16.16;65.11;99962.97;2023725;88;31694;-62
2022/09/08 00:45:23;;;;;;;14.75;10.78;;;;;;;16.13;65.09;99962.73;2023940;88;34190;-61
2022/09/08 00:48:25;;;;;;;16.77;11.18;;;;;;;16.09;65.37;99961.24;2024359;88;29616;-61
2022/09/08 00:51:27;;;;;;;17.87;11.73;;;;;;;16.08;65.57;99958.17;2023860;88;27666;-61
2022/09/08 00:54:30;;;;;;;14.53;10.68;;;;;;;16.05;65.51;99949.83;2023914;88;29782;-62
2022/09/08 00:57:31;;;;;;;14.05;10.68;;;;;;;16.03;65.51;99951.78;2024185;88;30923;-62
2022/09/08 01:00:37;;;;;;;16.45;11.97;;;;;;;16.00;65.83;99950.66;2043861;87;33177;-62
2022/09/08 01:03:41;;;;;;;16.50;12.47;;;;;;;15.99;65.86;99957.55;2045164;87;30782;-63
2022/09/08 01:14:14;;;;;;;20.48;11.22;;;;;;;15.93;66.24;99960.25;2063201;86;31093;-63
2022/09/08 01:17:21;;;;;;;23.65;12.60;;;;;;;15.85;66.10;99954.09;2063115;86;33084;-62
2022/09/08 01:20:59;;;;;;;18.62;11.20;;;;;;;15.74;66.33;99937.80;2062436;86;30030;-63
2022/09/08 01:24:17;;;;;;;15.70;11.00;;;;;;;15.72;66.40;99941.98;2063545;86;28228;-64
2022/09/08 01:27:22;;;;;;;15.18;10.60;;;;;;;15.81;66.37;99966.07;2062834;86;29972;-62
2022/09/08 01:30:24;;;;;;;16.07;11.68;;;;;;;15.63;67.01;99935.95;2047124;86;31765;-63
2022/09/08 01:33:25;;;;;;;17.37;11.20;;;;;;;15.63;67.01;99935.95;2046098;86;33352;-62
2022/09/08 01:36:26;;;;;;;19.23;11.20;;;;;;;15.73;66.95;99951.81;2046281;86;28871;-63
2022/09/08 01:39:28;;;;;;;16.27;12.30;;;;;;;15.58;66.88;99915.19;2029796;87;27618;-62
2022/09/08 01:42:29;;;;;;;15.68;11.85;;;;;;;15.69;67.22;99945.42;2045859;87;28573;-62
2022/09/08 01:45:30;;;;;;;17.87;12.15;;;;;;;15.67;67.26;99946.02;2046423;86;31842;-62
2022/09/08 01:48:32;;;;;;;18.07;11.85;;;;;;;15.65;67.17;99947.47;2026603;87;34127;-62
2022/09/08 01:51:34;;;;;;;19.73;12.60;;;;;;;15.64;67.11;99954.73;2026681;87;30991;-63
2022/09/08 01:54:36;;;;;;;17.12;10.63;;;;;;;15.63;67.05;99956.20;2036202;86;28330;-63
2022/09/08 01:57:37;;;;;;;14.60;10.80;;;;;;;15.61;67.23;99953.61;2012480;87;28711;-63
2022/09/08 02:00:41;;;;;;;19.05;12.05;;;;;;;15.60;67.21;99946.98;2021166;88;32046;-64
2022/09/08 02:03:43;;;;;;;14.83;10.85;;;;;;;15.60;67.21;99946.98;2021254;88;33754;-62
2022/09/08 02:06:45;;;;;;;17.27;11.45;;;;;;;15.59;67.27;99947.45;2021221;88;29646;-63
2022/09/08 02:09:47;;;;;;;19.57;11.48;;;;;;;15.54;67.23;99942.92;2021155;88;27676;-63
2022/09/08 02:12:48;;;;;;;15.43;11.53;;;;;;;15.40;67.36;99916.97;2020323;88;28717;-61
2022/09/08 02:15:50;;;;;;;17.77;11.33;;;;;;;15.40;67.36;99916.97;2021314;88;32446;-63
2022/09/08 02:18:55;;;;;;;20.82;12.98;;;;;;;15.50;67.31;99941.42;2022341;87;34123;-63
2022/09/08 02:21:56;;;;;;;16.48;12.13;;;;;;;15.49;67.48;99932.95;2020242;88;30820;-62
2022/09/08 02:24:59;;;;;;;16.48;11.40;;;;;;;15.39;67.38;99913.05;2028642;87;27734;-63
2022/09/08 02:28:01;;;;;;;17.00;10.95;;;;;;;15.47;67.50;99939.80;2044074;87;29878;-63
2022/09/08 02:31:03;;;;;;;19.10;10.60;;;;;;;15.44;67.50;99921.16;2074275;85;32347;-64
2022/09/08 02:34:07;;;;;;;18.90;11.08;;;;;;;15.44;67.41;99921.16;2081889;84;34063;-63
2022/09/08 02:37:09;;;;;;;18.20;11.03;;;;;;;15.43;67.54;99922.61;2082030;85;30398;-63
2022/09/08 02:40:11;;;;;;;17.10;11.30;;;;;;;15.43;67.33;99921.26;2082719;84;27619;-63
2022/09/08 02:43:12;;;;;;;15.90;10.98;;;;;;;15.42;67.37;99916.84;2082419;85;28837;-63
2022/09/08 02:46:14;;;;;;;14.53;10.23;;;;;;;15.38;67.79;99919.42;2082229;85;31072;-63
2022/09/08 02:49:17;;;;;;;15.68;10.40;;;;;;;15.38;67.79;99919.42;2074382;85;33712;-63
2022/09/08 02:52:19;;;;;;;16.62;11.28;;;;;;;15.33;67.64;99919.27;2058739;86;30800;-63
2022/09/08 02:55:23;;;;;;;16.73;10.58;;;;;;;15.31;67.67;99926.63;2058837;86;27772;-63
2022/09/08 02:58:25;;;;;;;14.60;10.23;;;;;;;15.28;67.62;99929.55;2058811;86;29518;-63
2022/09/08 03:01:26;;;;;;;19.32;11.25;;;;;;;15.27;67.71;99918.38;2058720;86;31802;-63
2022/09/08 03:04:28;;;;;;;14.63;11.53;;;;;;;15.27;67.71;99918.38;2058728;86;34186;-63
2022/09/08 03:07:31;;;;;;;16.73;11.97;;;;;;;15.25;67.67;99919.48;2058911;86;54707;-63
2022/09/08 03:10:33;;;;;;;19.73;12.82;;;;;;;15.22;67.76;99922.41;2058742;86;27681;-62
2022/09/08 03:13:36;;;;;;;18.85;11.65;;;;;;;15.20;67.71;99921.19;2058934;86;28891;-62
2022/09/08 03:16:39;;;;;;;14.15;10.75;;;;;;;15.07;67.48;99899.66;2058899;86;31916;-63
2022/09/08 03:19:40;;;;;;;17.07;11.48;;;;;;;15.15;67.92;99911.22;2029286;87;33732;-63
2022/09/08 03:22:43;;;;;;;15.20;11.40;;;;;;;15.12;68.05;99911.44;2049958;86;30039;-62
2022/09/08 03:25:44;;;;;;;19.50;11.45;;;;;;;14.96;68.09;99890.16;2050322;86;27588;-62
2022/09/08 03:28:47;;;;;;;15.83;11.85;;;;;;;15.00;67.98;99900.60;2050011;86;28699;-63
2022/09/08 03:31:49;;;;;;;15.38;11.45;;;;;;;15.01;68.09;99905.02;2062669;86;31042;-63
2022/09/08 03:34:50;;;;;;;19.48;12.43;;;;;;;14.94;67.96;99901.05;2064779;86;33025;-62
2022/09/08 03:37:54;;;;;;;18.40;12.60;;;;;;;14.94;67.96;99901.05;2064838;86;30081;-62
2022/09/08 03:40:56;;;;;;;19.85;13.22;;;;;;;14.94;68.04;99895.66;2065541;85;27622;-62
2022/09/08 03:43:57;;;;;;;18.67;11.83;;;;;;;14.93;68.05;99891.73;2064300;86;29904;-62
2022/09/08 03:47:00;;;;;;;18.98;11.48;;;;;;;14.91;68.02;99885.09;2065153;86;31429;-61
2022/09/08 03:50:02;;;;;;;17.40;11.90;;;;;;;14.86;68.23;99881.39;2064374;86;32945;-62
2022/09/08 03:53:04;;;;;;;18.77;11.80;;;;;;;14.86;68.23;99881.39;2058972;86;30369;-62
2022/09/08 03:56:08;;;;;;;17.27;12.25;;;;;;;14.86;68.05;99878.70;2065003;86;27704;-61
2022/09/08 03:59:10;;;;;;;13.93;11.10;;;;;;;14.83;68.24;99880.27;2057817;86;29873;-61
2022/09/08 04:02:12;;;;;;;21.02;11.73;;;;;;;14.82;68.40;99884.44;2058742;86;31660;-61
2022/09/08 04:05:14;;;;;;;18.73;11.55;;;;;;;14.75;68.29;99870.55;2064390;86;33666;-62
2022/09/08 04:08:15;;;;;;;20.92;11.33;;;;;;;14.75;68.29;99870.55;2047038;87;30801;-62
2022/09/08 04:11:18;;;;;;;18.77;11.40;;;;;;;14.72;68.31;99868.95;2070615;86;27734;-62
2022/09/08 04:14:20;;;;;;;26.02;11.50;;;;;;;14.71;68.36;99875.79;2070562;86;28896;-62
2022/09/08 04:17:24;;;;;;;15.75;11.75;;;;;;;14.68;68.58;99874.20;2064666;86;31498;-63
2022/09/08 04:20:25;;;;;;;19.17;12.15;;;;;;;14.67;68.25;99868.86;2047229;86;33018;-62
2022/09/08 04:23:28;;;;;;;21.60;11.78;;;;;;;14.65;68.28;99868.11;2027538;87;29686;-62
2022/09/08 04:26:29;;;;;;;21.23;11.38;;;;;;;14.64;68.45;99872.66;2027515;87;27633;-62
2022/09/08 04:29:31;;;;;;;22.60;12.05;;;;;;;14.64;68.33;99870.47;2062413;86;29637;-63
2022/09/08 04:32:35;;;;;;;19.95;11.73;;;;;;;14.66;68.27;99877.92;2046796;87;31875;-61
2022/09/08 04:35:37;;;;;;;17.60;12.18;;;;;;;14.65;68.29;99878.42;2046795;87;32494;-62
2022/09/08 04:38:39;;;;;;;20.20;12.07;;;;;;;14.67;68.47;99884.57;2046927;86;30023;-62
2022/09/08 04:41:40;;;;;;;16.32;12.15;;;;;;;14.66;68.45;99884.19;2047214;87;27689;-63
2022/09/08 04:44:42;;;;;;;19.00;11.50;;;;;;;14.64;68.41;99882.59;2047006;87;28883;-62
2022/09/08 04:47:43;;;;;;;18.23;11.30;;;;;;;14.65;68.53;99881.59;2047192;86;32087;-61
2022/09/08 04:50:44;;;;;;;23.60;11.12;;;;;;;14.67;68.64;99887.27;2046783;87;34002;-63
2022/09/08 04:53:47;;;;;;;17.48;11.83;;;;;;;14.69;68.56;99884.01;2010489;87;30042;-63
2022/09/08 04:56:50;;;;;;;19.50;11.48;;;;;;;14.74;68.55;99880.97;2046920;87;27693;-64
2022/09/08 04:59:51;;;;;;;19.12;11.45;;;;;;;14.78;68.65;99881.59;2047062;87;29418;-63
2022/09/08 05:02:52;;;;;;;21.82;12.03;;;;;;;14.89;68.53;99876.28;2046360;87;31596;-63
2022/09/08 05:05:53;;;;;;;20.95;11.95;;;;;;;14.89;68.53;99876.28;2047017;87;33776;-62
2022/09/08 05:08:56;;;;;;;25.05;12.80;;;;;;;14.95;68.35;99874.95;2046629;86;30463;-62
2022/09/08 05:11:57;;;;;;;18.12;11.90;;;;;;;15.03;68.41;99876.10;2046216;87;27726;-63
2022/09/08 05:14:59;;;;;;;25.35;12.05;;;;;;;15.13;68.34;99868.17;2046411;87;29449;-62
2022/09/08 05:18:00;;;;;;;19.12;12.00;;;;;;;15.22;68.24;99872.02;2046870;87;32210;-62
2022/09/08 05:21:03;;;;;;;26.10;12.55;;;;;;;15.31;68.10;99866.38;2046899;87;33082;-63
2022/09/08 05:24:05;;;;;;;21.73;11.78;;;;;;;15.41;67.96;99868.75;2046628;86;29768;-63
2022/09/08 05:27:06;;;;;;;22.25;11.85;;;;;;;15.48;68.02;99878.59;2047276;86;27593;-63
2022/09/08 05:30:10;;;;;;;17.80;11.85;;;;;;;15.62;67.87;99874.83;2049017;86;29131;-63
2022/09/08 05:33:11;;;;;;;17.60;11.78;;;;;;;15.72;67.62;99864.17;2073915;85;31148;-64
2022/09/08 05:36:21;;;;;;;22.22;11.85;;;;;;;15.83;67.48;99860.59;2073777;85;33696;-63
2022/09/08 05:39:23;;;;;;;21.57;12.15;;;;;;;15.89;67.28;99863.70;2049157;85;29133;-63
2022/09/08 05:42:25;;;;;;;17.23;12.20;;;;;;;15.95;67.12;99870.48;2073767;85;28325;-63
2022/09/08 05:45:27;;;;;;;20.15;11.75;;;;;;;16.02;67.19;99869.50;2072735;85;29933;-63
2022/09/08 05:48:30;;;;;;;15.45;10.95;;;;;;;16.12;66.58;99868.28;2073705;85;32388;-64
2022/09/08 05:51:32;;;;;;;18.42;11.80;;;;;;;16.12;66.58;99868.28;2073550;85;33819;-64
2022/09/08 05:54:34;;;;;;;20.08;12.28;;;;;;;16.15;66.77;99858.55;2073834;85;30325;-63
2022/09/08 05:57:36;;;;;;;16.40;11.83;;;;;;;16.26;66.81;99859.92;2073775;85;27644;-63
2022/09/08 06:00:38;;;;;;;19.67;13.03;;;;;;;16.43;66.78;99848.23;2073932;85;29248;-63
2022/09/08 06:03:40;;;;;;;19.20;11.65;;;;;;;16.58;66.54;99847.45;2073801;85;31438;-64
2022/09/08 06:06:42;;;;;;;22.52;12.63;;;;;;;16.75;66.52;99850.97;2073557;85;33677;-63
2022/09/08 06:09:43;;;;;;;22.50;11.78;;;;;;;16.93;66.13;99852.66;2073073;85;30030;-64
2022/09/08 06:12:45;;;;;;;22.05;12.65;;;;;;;17.10;65.94;99850.41;2073894;85;27717;-64
2022/09/08 06:15:49;;;;;;;19.57;12.10;;;;;;;17.26;65.66;99855.36;2073586;85;30786;-63
2022/09/08 06:18:51;;;;;;;21.87;13.00;;;;;;;17.46;65.53;99844.17;2074134;85;31036;-63
2022/09/08 06:21:52;;;;;;;20.65;12.58;;;;;;;17.66;65.22;99837.53;2073939;85;33397;-64
2022/09/08 06:24:54;;;;;;;18.65;12.37;;;;;;;17.92;65.14;99839.31;2073814;85;30014;-62
2022/09/08 06:28:04;;;;;;;19.82;11.95;;;;;;;18.25;64.44;99837.34;2073939;85;27688;-64
2022/09/08 06:31:08;;;;;;;18.90;12.05;;;;;;;18.52;64.23;99836.70;2062770;86;28762;-64
2022/09/08 06:34:24;;;;;;;17.17;11.22;;;;;;;18.83;63.46;99827.11;2045358;86;31473;-64
2022/09/08 06:37:48;;;;;;;20.43;11.57;;;;;;;19.16;63.06;99828.23;2047058;86;33005;-65
2022/09/08 06:41:02;;;;;;;22.35;11.75;;;;;;;19.40;62.43;99822.84;2047239;87;30028;-64
2022/09/08 06:44:12;;;;;;;20.02;12.05;;;;;;;19.67;62.01;99817.16;2046902;87;27699;-64
2022/09/08 06:47:17;;;;;;;16.75;11.33;;;;;;;20.07;61.84;99818.74;2038617;85;28645;-62
2022/09/08 06:50:19;;;;;;;19.00;11.93;;;;;;;20.49;61.11;99808.73;2046015;86;31400;-63
2022/09/08 06:53:24;;;;;;;17.48;11.97;;;;;;;20.75;60.57;99809.36;2046107;87;33108;-63
2022/09/08 06:56:34;;;;;;;14.95;11.35;;;;;;;21.04;60.27;99814.23;2045955;87;29623;-63
2022/09/08 06:59:59;;;;;;;18.90;10.95;;;;;;;21.33;59.36;99807.16;2046787;86;27620;-63
2022/09/08 07:03:56;;;;;;;16.48;11.90;;;;;;;21.57;59.24;99810.22;2046963;86;29672;-63
2022/09/08 07:07:18;;;;;;;16.40;11.93;;;;;;;21.76;59.27;99803.19;2046246;87;31926;-61
2022/09/08 07:10:33;;;;;;;15.93;11.75;;;;;;;21.98;58.38;99809.98;2041532;87;33966;-63
2022/09/08 07:13:43;;;;;;;18.20;11.53;;;;;;;22.16;57.99;99807.69;2046232;87;30033;-61
2022/09/08 07:16:51;;;;;;;20.02;11.85;;;;;;;22.38;57.90;99793.95;2046516;86;27756;-62
2022/09/08 07:19:54;;;;;;;18.73;10.95;;;;;;;22.50;57.47;99792.30;2046570;87;28703;-61
2022/09/08 07:23:06;;;;;;;15.88;11.12;;;;;;;22.70;57.04;99796.94;2040936;87;31024;-61
2022/09/08 07:26:24;;;;;;;16.70;10.55;;;;;;;22.83;56.28;99795.96;2015947;86;33075;-62
2022/09/08 07:29:42;;;;;;;19.52;10.93;;;;;;;22.97;56.29;99790.84;2028521;87;30702;-61
2022/09/08 07:32:51;;;;;;;16.15;11.05;;;;;;;23.23;56.59;99789.34;2051944;85;27665;-64
2022/09/08 07:36:21;;;;;;;13.65;10.25;;;;;;;23.64;55.74;99789.28;2012772;88;28716;-62
2022/09/08 07:39:45;;;;;;;15.93;11.60;;;;;;;23.85;55.06;99779.66;2047595;86;31450;-62
2022/09/08 07:42:57;;;;;;;17.25;11.18;;;;;;;24.18;55.20;99782.30;2041422;86;33351;-66
2022/09/08 07:46:10;;;;;;;16.37;11.40;;;;;;;24.51;52.12;99779.39;2056241;86;30853;-63
2022/09/08 07:49:34;;;;;;;14.05;10.43;;;;;;;24.62;53.22;99779.50;2057277;86;27757;-63
2022/09/08 07:53:08;;;;;;;14.18;10.32;;;;;;;24.60;52.89;99777.45;2057218;86;29997;-64
2022/09/08 07:56:20;;;;;;;19.15;10.90;;;;;;;24.69;52.93;99779.09;2058871;86;31088;-65
2022/09/08 07:59:39;;;;;;;14.25;9.95;;;;;;;24.92;51.84;99781.53;2058594;86;34326;-65
2022/09/08 08:03:12;;;;;;;16.00;10.32;;;;;;;25.02;51.97;99778.88;2058795;86;30522;-65
2022/09/08 08:06:26;;;;;;;15.53;9.73;;;;;;;25.23;51.13;99777.34;2070481;86;27630;-66
2022/09/08 08:09:51;;;;;;;15.53;10.32;;;;;;;25.36;51.05;99778.59;2071274;84;29517;-63
2022/09/08 08:13:07;;;;;;;15.00;10.43;;;;;;;25.38;50.69;99776.52;2070986;85;32230;-65
2022/09/08 08:16:13;;;;;;;18.98;10.28;;;;;;;25.49;50.64;99773.34;2027588;87;33537;-65
2022/09/08 08:19:32;;;;;;;15.53;10.98;;;;;;;25.76;50.90;99772.40;2006832;87;30486;-62
2022/09/08 08:23:13;;;;;;;12.03;9.63;;;;;;;26.07;50.80;99770.80;2021237;87;28331;-66
2022/09/08 08:26:28;;;;;;;12.33;9.10;;;;;;;26.39;50.36;99770.61;2040985;85;29997;-65
2022/09/08 08:29:53;;;;;;;13.48;10.05;;;;;;;26.56;49.71;99770.38;2064953;85;31085;-65
2022/09/08 08:33:12;;;;;;;11.53;9.83;;;;;;;26.65;49.13;99770.06;2069652;85;34395;-63
2022/09/08 08:36:18;;;;;;;11.80;9.33;;;;;;;26.59;49.12;99768.62;2030114;86;30835;-63
2022/09/08 08:39:22;;;;;;;16.17;9.45;;;;;;;26.68;49.29;99762.80;2029862;87;27748;-65
2022/09/08 08:43:05;;;;;;;17.60;9.63;;;;;;;26.56;49.13;99755.27;2030247;87;28134;-65
2022/09/08 08:46:36;;;;;;;12.90;9.20;;;;;;;26.36;49.23;99754.00;2038049;86;30886;-65
2022/09/08 08:50:18;;;;;;;12.90;9.05;;;;;;;26.14;49.39;99747.62;2069116;86;32560;-64
2022/09/08 08:53:52;;;;;;;11.57;8.48;;;;;;;26.05;49.53;99741.35;2068668;85;29699;-63
2022/09/08 08:57:37;;;;;;;11.53;9.55;;;;;;;25.97;49.67;99732.37;1991190;89;27765;-64
2022/09/08 09:00:43;;;;;;;12.30;9.55;;;;;;;25.96;50.00;99720.52;1986078;89;29290;-65
2022/09/08 09:04:05;;;;;;;10.13;9.10;;;;;;;25.98;49.69;99725.84;1971463;89;31558;-66
2022/09/08 09:07:40;;;;;;;13.93;8.70;;;;;;;25.90;50.04;99723.52;1985335;89;32978;-65
2022/09/08 09:11:08;;;;;;;13.45;9.15;;;;;;;25.98;50.47;99721.72;1985638;89;30825;-66
2022/09/08 09:14:21;;;;;;;10.70;8.43;;;;;;;26.08;50.20;99714.86;1990331;89;27820;-65
2022/09/08 09:17:34;;;;;;;11.45;8.85;;;;;;;26.11;50.53;99715.05;1990124;89;29472;-65
2022/09/08 09:20:57;;;;;;;10.90;9.78;;;;;;;26.16;50.20;99713.93;1989621;89;32354;-67
2022/09/08 09:24:03;;;;;;;9.98;8.55;;;;;;;26.11;50.31;99712.31;1992074;89;34195;-65
2022/09/08 09:27:31;;;;;;;11.38;8.98;;;;;;;26.16;50.34;99709.81;1993666;89;29643;-65
2022/09/08 09:30:56;;;;;;;9.53;8.53;;;;;;;26.11;50.27;99710.94;1990465;89;27593;-68
2022/09/08 09:34:27;;;;;;;10.70;9.30;;;;;;;26.11;50.48;99710.94;2011412;87;28334;-67
2022/09/08 09:37:58;;;;;;;10.00;7.85;;;;;;;26.11;50.32;99698.58;2027375;87;32257;-67
2022/09/08 09:41:44;;;;;;;12.28;9.75;;;;;;;26.04;50.24;99694.36;2027144;87;32491;-68
2022/09/08 09:45:06;;;;;;;12.33;10.10;;;;;;;26.00;50.75;99697.14;2027395;87;30050;-67
2022/09/08 09:48:48;;;;;;;11.88;9.88;;;;;;;25.98;50.59;99697.02;2022819;87;28274;-67
2022/09/08 09:52:19;;;;;;;14.95;9.58;;;;;;;26.00;50.70;99698.52;2022503;88;29091;-67
2022/09/08 09:55:34;;;;;;;12.20;9.98;;;;;;;26.00;50.84;99695.77;2022646;88;31704;-67
2022/09/08 09:59:02;;;;;;;10.32;8.90;;;;;;;26.02;50.78;99692.83;1951259;90;34306;-67
2022/09/08 10:02:27;;;;;;;10.43;9.33;;;;;;;26.08;51.10;99686.04;1951929;91;29727;-66
2022/09/08 10:05:59;;;;;;;12.15;9.70;;;;;;;26.12;50.55;99681.57;1952158;91;27771;-65
2022/09/08 10:09:56;;;;;;;11.22;9.18;;;;;;;26.16;50.92;99683.73;1951561;91;30050;-66
2022/09/08 10:13:22;;;;;;;12.18;9.48;;;;;;;26.17;50.86;99681.85;1951944;91;32092;-66
2022/09/08 10:16:41;;;;;;;17.40;11.00;;;;;;;26.20;50.75;99682.30;1951962;91;34191;-65
2022/09/08 10:20:23;;;;;;;12.28;8.65;;;;;;;26.18;50.85;99680.27;1916463;92;30322;-65
2022/09/08 10:24:01;;;;;;;16.27;9.80;;;;;;;26.11;50.74;99658.77;1955246;89;27748;-69
2022/09/08 10:27:23;;;;;;;12.33;9.55;;;;;;;26.22;51.20;99661.54;1959239;89;29848;-66
2022/09/08 10:30:48;;;;;;;14.18;11.38;;;;;;;26.24;51.17;99670.41;1951960;89;30401;-68
2022/09/08 10:34:29;;;;;;;10.53;9.43;;;;;;;26.18;50.92;99663.80;1962852;88;34233;-67
2022/09/08 10:38:08;;;;;;;13.60;10.65;;;;;;;26.20;50.98;99659.50;2040288;85;30068;-66
2022/09/08 10:41:50;;;;;;;16.23;10.10;;;;;;;26.25;51.24;99655.63;2028986;86;27688;-69
2022/09/08 10:45:18;;;;;;;13.65;10.70;;;;;;;26.23;51.14;99657.21;2057290;85;29878;-65
2022/09/08 10:48:43;;;;;;;13.38;11.55;;;;;;;26.23;51.15;99650.85;2039684;85;32339;-62
2022/09/08 10:52:13;;;;;;;11.00;9.90;;;;;;;26.23;51.26;99650.34;2048168;85;33794;-67
2022/09/08 10:55:50;;;;;;;12.53;10.32;;;;;;;26.35;51.35;99658.92;2042234;85;29688;-65
2022/09/08 10:59:31;;;;;;;11.85;9.80;;;;;;;26.48;51.23;99651.31;2046154;86;28487;-66
2022/09/08 11:03:05;;;;;;;11.25;10.05;;;;;;;26.71;51.27;99650.27;2046922;85;29897;-66
2022/09/08 11:06:10;;;;;;;15.55;10.08;;;;;;;26.99;51.21;99655.81;2008199;87;31735;-63
2022/09/08 11:09:41;;;;;;;11.93;10.72;;;;;;;27.26;50.36;99642.23;1998759;87;32984;-69
2022/09/08 11:13:23;;;;;;;12.25;10.93;;;;;;;27.48;50.28;99634.45;1980088;89;29235;-65
2022/09/08 11:16:51;;;;;;;16.60;9.83;;;;;;;27.74;49.61;99637.85;1979283;89;27853;-65
2022/09/08 11:20:12;;;;;;;13.25;11.30;;;;;;;27.89;48.31;99634.95;1938996;91;29223;-65
2022/09/08 11:23:39;;;;;;;14.80;10.45;;;;;;;27.94;48.72;99628.31;1893105;91;31502;-66
2022/09/08 11:27:17;;;;;;;14.68;9.83;;;;;;;27.99;48.67;99629.90;1939648;91;33404;-66
2022/09/08 11:30:32;;;;;;;9.15;8.03;;;;;;;28.05;48.66;99625.46;1908924;93;29991;-68
2022/09/08 11:34:17;;;;;;;10.75;9.48;;;;;;;28.13;48.38;99629.45;1848543;95;27872;-65
2022/09/08 11:37:49;;;;;;;17.00;9.88;;;;;;;28.13;48.82;99625.86;1862703;93;30219;-63
2022/09/08 11:41:16;;;;;;;12.20;8.85;;;;;;;28.13;48.39;99617.05;1872213;95;31528;-64
2022/09/08 11:44:42;;;;;;;10.85;9.55;;;;;;;28.12;48.82;99616.73;1896218;93;33348;-64
2022/09/08 11:47:49;;;;;;;11.33;9.08;;;;;;;28.09;48.46;99606.64;1896310;93;30609;-65
2022/09/08 11:51:09;;;;;;;9.45;8.33;;;;;;;28.15;48.87;99606.68;1943540;90;28226;-65
2022/09/08 11:55:06;;;;;;;12.25;8.73;;;;;;;28.20;48.41;99601.91;1947290;91;29984;-65
2022/09/08 11:58:37;;;;;;;13.25;9.08;;;;;;;28.22;47.35;99606.69;1900013;92;31442;-64
2022/09/08 12:01:59;;;;;;;13.65;9.55;;;;;;;28.12;47.35;99594.70;1898670;93;33379;-64
2022/09/08 12:05:21;;;;;;;12.50;9.00;;;;;;;28.05;47.52;99578.65;1897756;93;29757;-64
2022/09/08 12:08:40;;;;;;;21.80;8.90;;;;;;;28.01;47.31;99576.85;1898807;93;27924;-64
2022/09/08 12:11:54;;;;;;;16.85;8.40;;;;;;;27.97;47.57;99571.44;1932675;92;29565;-64
2022/09/08 12:15:04;;;;;;;17.13;9.03;;;;;;;27.97;47.76;99570.59;1924632;91;31755;-64
2022/09/08 12:19:00;;;;;;;10.40;9.30;;;;;;;27.94;47.70;99554.49;1934416;92;32975;-64
2022/09/08 12:22:22;;;;;;;13.80;8.10;;;;;;;27.90;47.82;99554.91;1934202;92;30855;-64
2022/09/08 12:25:56;;;;;;;15.18;9.78;;;;;;;27.88;48.19;99538.28;1934417;92;27766;-64
2022/09/08 12:29:26;;;;;;;12.73;9.08;;;;;;;27.90;48.12;99528.75;1977457;87;30021;-65
2022/09/08 12:33:13;;;;;;;12.63;8.73;;;;;;;27.96;47.88;99523.47;2030926;85;31425;-64
2022/09/08 12:36:41;;;;;;;10.30;8.05;;;;;;;27.93;47.69;99515.12;2076372;84;33057;-64
2022/09/08 12:40:05;;;;;;;12.58;8.70;;;;;;;27.84;47.91;99498.46;2075639;85;31174;-64
2022/09/08 12:43:23;;;;;;;12.13;8.60;;;;;;;27.83;47.84;99503.64;2077164;85;28263;-64
2022/09/08 12:46:43;;;;;;;13.78;9.10;;;;;;;27.73;48.07;99489.78;2076149;84;28687;-63
2022/09/08 12:50:27;;;;;;;12.05;9.28;;;;;;;27.62;48.12;99471.14;2076370;84;32367;-63
2022/09/08 12:53:55;;;;;;;17.02;8.93;;;;;;;27.51;48.03;99468.46;2076331;85;33479;-66
2022/09/08 12:57:17;;;;;;;10.60;9.00;;;;;;;27.39;48.33;99461.30;2076611;84;30056;-67
2022/09/08 13:00:22;;;;;;;19.12;9.83;;;;;;;27.29;48.33;99454.82;2076335;84;27664;-66
2022/09/08 13:03:34;;;;;;;;;;;;;;;27.24;48.80;99443.58;2078737;84;28542;-64
2022/09/08 13:06:59;;;;;;;10.85;9.18;;;;;;;27.19;48.51;99438.39;2075033;85;31545;-64
2022/09/08 13:10:16;;;;;;;12.40;8.80;;;;;;;27.13;48.87;99435.94;2029406;84;33337;-64
2022/09/08 13:13:37;;;;;;;12.53;9.40;;;;;;;27.10;49.03;99444.59;2011270;87;29685;-65
2022/09/08 13:16:53;;;;;;;10.03;8.73;;;;;;;27.08;49.37;99460.44;2034183;86;27701;-64
2022/09/08 13:20:31;;;;;;;9.45;8.05;;;;;;;27.08;49.26;99458.56;2008899;88;29948;-64
2022/09/08 13:23:50;;;;;;;10.50;8.80;;;;;;;27.08;49.05;99448.94;1979665;89;31435;-64
2022/09/08 13:27:15;;;;;;;10.68;9.40;;;;;;;27.11;48.89;99447.67;1996063;87;33115;-64
2022/09/08 13:30:23;;;;;;;10.58;8.50;;;;;;;27.10;49.09;99448.72;1995446;89;30799;-65
2022/09/08 13:33:36;;;;;;;12.05;10.08;;;;;;;27.10;48.99;99449.59;1999595;88;27843;-67
2022/09/08 13:37:11;;;;;;;14.30;9.28;;;;;;;27.06;48.89;99445.55;2008716;88;28867;-66
2022/09/08 13:40:23;;;;;;;10.70;8.80;;;;;;;27.01;48.95;99449.42;2009809;88;31043;-66
2022/09/08 13:43:51;;;;;;;12.80;9.63;;;;;;;26.95;49.05;99448.89;2009527;88;34029;-67
2022/09/08 13:47:27;;;;;;;9.70;8.73;;;;;;;26.87;49.16;99442.17;2008504;88;30851;-68
2022/09/08 13:50:40;;;;;;;9.75;8.85;;;;;;;26.78;49.36;99435.46;2009803;88;27701;-67
2022/09/08 13:53:53;;;;;;;11.10;8.70;;;;;;;26.67;49.34;99413.53;2017589;87;28676;-68
2022/09/08 13:57:19;;;;;;;12.73;9.98;;;;;;;26.56;49.40;99411.33;2024441;86;31852;-67
2022/09/08 14:00:23;;;;;;;14.00;9.55;;;;;;;26.46;49.70;99402.62;2050539;85;33148;-66
2022/09/08 14:03:29;;;;;;;14.85;9.50;;;;;;;26.38;49.90;99423.73;2082647;85;30428;-66
2022/09/08 14:06:55;;;;;;;12.82;8.53;;;;;;;26.29;49.98;99431.78;2082883;85;27676;-68
2022/09/08 14:10:15;;;;;;;10.40;8.50;;;;;;;26.15;49.62;99417.09;2082324;85;29949;-66
2022/09/08 14:13:35;;;;;;;10.40;7.80;;;;;;;26.03;49.97;99396.20;2082744;85;31058;-68
2022/09/08 14:16:37;;;;;;;12.28;8.78;;;;;;;25.89;49.67;99394.41;2082687;85;35550;-64
2022/09/08 14:20:10;;;;;;;9.18;8.28;;;;;;;25.71;49.80;99387.52;2082266;85;30505;-64
2022/09/08 14:23:42;;;;;;;14.87;7.85;;;;;;;25.59;50.01;99413.25;2066880;85;27787;-66
2022/09/08 14:26:49;;;;;;;45.17;9.55;;;;;;;25.48;50.25;99489.20;2043827;86;29062;-64
2022/09/08 14:30:15;;;;;;;26.52;4.62;;;;;;;25.38;51.85;99681.42;2043550;86;32009;-66
2022/09/08 14:33:47;;;;;;;7.25;2.77;;;;;;;24.82;54.11;99648.92;2042404;86;33331;-66
2022/09/08 14:37:05;;;;;;;6.83;2.65;;;;;;;23.64;54.54;99618.36;2035764;87;30256;-66
2022/09/08 14:40:23;;;;;;;11.97;2.50;;;;;;;22.73;55.02;99662.80;2017869;88;27788;-66
2022/09/08 14:43:39;;;;;;;7.85;2.27;;;;;;;22.11;55.93;99686.75;2018596;88;28674;-66
2022/09/08 14:46:54;;;;;;;4.72;1.85;;;;;;;21.57;56.51;99700.67;1954652;91;32268;-65
2022/09/08 14:50:38;;;;;;;6.35;1.60;;;;;;;21.19;57.65;99702.82;1927930;92;32983;-65
2022/09/08 14:54:06;;;;;;;4.25;1.52;;;;;;;20.91;58.75;99711.14;1997302;88;30218;-64
2022/09/08 14:57:24;;;;;;;5.20;2.00;;;;;;;20.62;59.37;99715.80;1996361;89;27574;-63
2022/09/08 15:00:38;;;;;;;8.38;2.30;;;;;;;20.30;59.96;99717.70;1996290;89;30104;-65
2022/09/08 15:03:41;;;;;;;10.88;1.98;;;;;;;19.65;61.18;99667.82;1995520;89;32210;-64
2022/09/08 15:06:53;;;;;;;;;;;;;;;19.65;61.18;99667.82;1997705;89;29864;-65